• Join FlightAware (Why Join?)
  • Login
  • US Flag 
12:09AM EDT


 

Airport Tracker/Info


-or-


 

Live Flight TrackerFlight Track Log ✈ ASQ4577 ✈ 09-May-2013 ✈ KDEN - KCLE

Flight Track Log - Related Links

Times and Time Zones

All times are in EDT time to prevent confusion due to time zone crossing. See the ASQ4577 flight status page for this flight to view local times or setup timezone preferences in your user account.

Time Position Orientation Groundspeed Altitude Reporting Facility
EDT Latitude Longitude Course Direction KTS MPH feet Rate Location/Type
03:29PM 39.8833 -104.6167 90° East 188 216 6,100  Level Denver TRACON
03:30PM 39.8833 -104.5333 90° East 219 252 8,100 2,040 Climbing Denver TRACON
03:32PM 39.8750 -104.3758 94° East 269 310 11,800 2,160 Climbing Denver Center
03:33PM 39.8769 -104.2733 89° East 280 322 14,100 2,160 Climbing Denver Center
03:34PM 39.8783 -104.1706 89° East 283 326 16,300 1,920 Climbing Denver Center
03:35PM 39.8797 -104.0575 89° East 289 333 18,100 1,680 Climbing Denver Center
03:36PM 39.8806 -103.9506 89° East 294 338 19,800 1,500 Climbing Denver Center
03:37PM 39.8825 -103.8269 89° East 319 367 21,300 1,140 Climbing Denver Center
03:38PM 39.8897 -103.6828 86° East 338 389 22,500 1,020 Climbing Denver Center
03:39PM 39.9058 -103.5331 82° East 373 429 23,700 1,020 Climbing Denver Center
03:40PM 39.9214 -103.3978 81° East 384 442 24,700 900 Climbing Denver Center
03:41PM 39.9367 -103.2644 81° East 389 448 25,600 960 Climbing Denver Center
03:42PM 39.9542 -103.1061 82° East 396 456 26,700 960 Climbing Denver Center
03:43PM 39.9692 -102.9700 82° East 396 456 27,700 960 Climbing Denver Center
03:44PM 40.0000 -102.8161 75° East 395 455 28,800 900 Climbing Denver Center
03:45PM 40.0208 -102.7067 76° East 392 451 29,600 1,020 Climbing Denver Center
03:46PM 40.0572 -102.5297 75° East 396 456 30,900 1,080 Climbing Denver Center
03:47PM 40.0833 -102.3953 76° East 401 461 31,900 900 Climbing Denver Center
03:48PM 40.1103 -102.2606 75° East 403 464 32,800 840 Climbing Denver Center
03:49PM 40.1394 -102.1028 76° East 400 460 33,900 960 Climbing Denver Center
03:50PM 40.1742 -101.9244 76° East 397 457 35,000 480 Climbing Denver Center
03:52PM 40.1997 -101.7889 76° East 401 461 35,000  Level Denver Center
03:53PM 40.2303 -101.6242 76° East 416 479 35,000  Level Denver Center
03:54PM 40.2586 -101.4781 76° East 430 495 35,000  Level Denver Center
03:55PM 40.2842 -101.3328 77° East 431 496 35,000  Level Denver Center
03:56PM 40.3150 -101.1658 76° East 425 489 35,000  Level Denver Center
03:57PM 40.3417 -101.0197 76° East 432 497 35,000  Level Denver Center
03:58PM 40.3675 -100.8750 77° East 430 495 35,000  Level Denver Center
03:59PM 40.3975 -100.7072 77° East 426 490 35,000  Level Denver Center
04:00PM 40.4278 -100.5386 77° East 429 494 35,000  Level Denver Center
04:01PM 40.4486 -100.4150 77° East 437 503 35,000  Level Denver Center
04:02PM 40.4833 -100.2200 77° East 434 499 35,000  Level Denver Center
04:03PM 40.5133 -100.0483 77° East 434 499 35,000  Level Denver Center
04:04PM 40.5392 -99.8981 77° East 439 505 35,000  Level Denver Center
04:05PM 40.5658 -99.7403 77° East 439 505 35,000  Level Denver Center
04:06PM 40.5922 -99.5850 77° East 436 502 35,000  Level Denver Center
04:07PM 40.6178 -99.4314 78° East 431 496 35,000  Level Denver Center
04:08PM 40.6425 -99.2758 78° East 435 501 35,000  Level Denver Center
04:09PM 40.6731 -99.0878 78° East 440 506 35,000  Level Denver Center
04:10PM 40.6883 -98.9950 78° East 440 506 35,000  Level Minneapolis Center
04:11PM 40.7189 -98.8056 78° East 443 510 35,000  Level Minneapolis Center
04:12PM 40.7444 -98.6475 78° East 444 511 35,000  Level Minneapolis Center
04:13PM 40.7647 -98.5208 78° East 444 511 35,000  Level Minneapolis Center
04:14PM 40.7939 -98.3331 78° East 442 509 35,000  Level Minneapolis Center
04:15PM 40.8172 -98.1761 79° East 440 506 35,000  Level Minneapolis Center
04:16PM 40.8467 -97.9872 78° East 440 506 35,000  Level Minneapolis Center
04:17PM 40.8706 -97.8300 79° East 439 505 35,000  Level Minneapolis Center
04:18PM 40.8942 -97.6708 79° East 441 507 35,000  Level Minneapolis Center
04:19PM 40.9172 -97.5114 79° East 442 509 35,000  Level Minneapolis Center
04:20PM 40.9425 -97.3478 78° East 445 512 35,000  Level Minneapolis Center
04:21PM 40.9656 -97.1883 79° East 444 511 35,000  Level Minneapolis Center
04:22PM 40.9883 -97.0258 79° East 447 514 35,000  Level Minneapolis Center
04:23PM 41.0169 -96.8317 79° East 450 518 35,000  Level Minneapolis Center
04:24PM 41.0400 -96.6681 79° East 453 521 35,000  Level Minneapolis Center
04:25PM 41.0628 -96.5061 79° East 451 519 35,000  Level Minneapolis Center
04:26PM 41.0864 -96.3428 79° East 452 520 35,000  Level Minneapolis Center
04:27PM 41.1078 -96.1789 80° East 454 522 35,000  Level Minneapolis Center
04:28PM 41.1347 -95.9769 80° East 460 529 35,000  Level Minneapolis Center
04:29PM 41.1561 -95.8108 80° East 457 526 35,000  Level Minneapolis Center
04:31PM 41.1808 -95.6425 79° East 463 533 35,000  Level Minneapolis Center
04:32PM 41.2017 -95.4903 80° East 452 520 35,000  Level Minneapolis Center
04:33PM 41.2258 -95.3267 79° East 454 522 35,000  Level Minneapolis Center
04:34PM 41.2533 -95.1300 79° East 454 522 35,000  Level Minneapolis Center
04:35PM 41.2750 -94.9661 80° East 452 520 35,000  Level Minneapolis Center
04:36PM 41.2983 -94.7994 79° East 456 525 35,000  Level Minneapolis Center
04:37PM 41.3211 -94.6306 80° East 463 533 35,000  Level Minneapolis Center
04:38PM 41.3431 -94.4614 80° East 464 534 35,000  Level Minneapolis Center
04:39PM 41.3667 -94.2903 80° East 469 540 35,000  Level Minneapolis Center
04:40PM 41.3956 -94.0739 80° East 457 526 35,000  Level Minneapolis Center
04:41PM 41.4197 -93.8753 81° East 455 524 35,000  Level Minneapolis Center
04:42PM 41.4425 -93.7072 80° East 461 531 35,000  Level Minneapolis Center
04:43PM 41.4681 -93.5056 80° East 463 533 35,000  Level Minneapolis Center
04:45PM 41.4903 -93.3319 80° East 472 543 35,000  Level Minneapolis Center
04:46PM 41.5142 -93.1306 81° East 465 535 35,000  Level Minneapolis Center
04:47PM 41.5356 -92.9617 80° East 464 534 35,000  Level Minneapolis Center
04:48PM 41.5553 -92.7911 81° East 465 535 35,000  Level Minneapolis Center
04:49PM 41.5800 -92.5825 81° East 472 543 35,000  Level Minneapolis Center
04:49PM 41.5842 -92.5419 82° East 475 547 35,000  Level Chicago Center
04:50PM 41.6042 -92.3683 81° East 478 550 35,000  Level Chicago Center
04:51PM 41.6278 -92.1644 81° East 471 542 35,000  Level Chicago Center
04:52PM 41.6483 -91.9911 81° East 477 549 35,000  Level Chicago Center
04:53PM 41.6672 -91.8142 82° East 484 557 35,000  Level Chicago Center
04:54PM 41.6867 -91.6392 81° East 484 557 35,000  Level Chicago Center
04:55PM 41.7089 -91.4289 82° East 483 556 35,000  Level Chicago Center
04:56PM 41.7261 -91.2600 82° East 468 539 35,000  Level Chicago Center
04:57PM 41.7444 -91.0875 82° East 475 547 35,000  Level Chicago Center
04:58PM 41.7619 -90.9136 82° East 477 549 35,000  Level Chicago Center
04:59PM 41.7797 -90.7386 82° East 480 552 35,000  Level Chicago Center
05:00PM 41.8000 -90.5278 83° East 481 554 35,000  Level Chicago Center
05:02PM 41.8175 -90.3517 82° East 481 554 35,000  Level Chicago Center
05:03PM 41.8336 -90.1761 83° East 480 552 35,000  Level Chicago Center
05:04PM 41.8503 -89.9994 83° East 482 555 35,000  Level Chicago Center
05:05PM 41.8675 -89.8139 83° East 472 543 35,000  Level Chicago Center
05:06PM 41.8842 -89.6358 83° East 480 552 35,000  Level Chicago Center
05:07PM 41.9033 -89.4225 83° East 483 556 35,000  Level Chicago Center
05:08PM 41.9189 -89.2464 83° East 480 552 35,000  Level Chicago Center
05:09PM 41.9331 -89.0689 84° East 480 552 35,000  Level Chicago Center
05:10PM 41.9486 -88.8883 83° East 487 560 35,000  Level Chicago Center
05:11PM 41.9636 -88.7058 84° East 492 566 35,000  Level Chicago Center
05:12PM 41.9803 -88.4914 84° East 485 558 35,000  Level Chicago Center
05:13PM 41.9956 -88.3067 84° East 494 568 35,000  Level Chicago Center
05:14PM 42.0092 -88.1258 84° East 489 563 35,000  Level Chicago Center
05:15PM 42.0225 -87.9481 84° East 481 554 35,000  Level Chicago Center
05:16PM 42.0361 -87.7650 84° East 490 564 35,000  Level Chicago Center
05:17PM 42.0492 -87.5789 85° East 497 572 35,000  Level Chicago Center
05:18PM 42.0625 -87.3925 84° East 502 578 35,000  Level Chicago Center
05:19PM 42.0750 -87.1711 86° East 496 571 35,000  Level Chicago Center
05:20PM 42.0747 -86.9850 90° East 498 573 35,000 -60 Level Chicago Center
05:21PM 42.0756 -86.7986 90° East 501 577 34,900 -840 Descending Chicago Center
05:22PM 42.0778 -86.5997 89° East 491 565 33,300 -960 Descending Chicago Center
05:23PM 42.0775 -86.4189 90° East 485 558 33,000 -180 Descending Chicago Center
05:24PM 42.0786 -86.2358 89° East 488 562 33,000  Level Chicago Center
05:25PM 42.0781 -86.0472 90° East 501 577 33,000  Level Chicago Center
05:26PM 42.0781 -85.8378 90° East 502 578 33,000  Level Chicago Center
05:27PM 42.0772 -85.6494 90° East 505 581 33,000  Level Chicago Center
05:28PM 42.0769 -85.4600 90° East 509 586 33,000  Level Chicago Center
05:29PM 42.0778 -85.3508 89° East 517 595 33,000 -300 Level Cleveland Center
05:30PM 42.0769 -85.1633 90° East 524 603 32,600 -540 Descending Cleveland Center
05:31PM 42.0761 -84.9758 90° East 511 588 32,000 -300 Descending Cleveland Center
05:32PM 42.0728 -84.7853 91° East 506 582 32,000  Level Cleveland Center
05:33PM 42.0711 -84.5975 91° East 501 577 32,000 -540 Level Cleveland Center
05:34PM 42.0672 -84.4100 92° East 501 577 31,000 -1,440 Descending Cleveland Center
05:35PM 42.0600 -84.2389 93° East 496 571 29,200 -1,920 Descending Cleveland Center
05:36PM 42.0578 -84.0483 91° East 501 577 27,200 -1,980 Descending Cleveland Center
05:37PM 42.0550 -83.8608 91° East 501 577 25,300 -1,620 Descending Cleveland Center
05:38PM 42.0517 -83.6789 91° East 495 570 24,000 -660 Descending Cleveland Center
05:39PM 42.0461 -83.4883 92° East 476 548 24,000 -900 Level Cleveland Center
05:40PM 42.0317 -83.3089 96° East 476 548 22,300 -2,220 Descending Cleveland Center
05:41PM 42.0167 -83.1461 97° East 462 532 19,600 -2,160 Descending Cleveland Center
05:42PM 41.9994 -82.9833 98° East 446 513 18,000 -1,800 Descending Cleveland Center
05:43PM 41.9858 -82.8319 97° East 426 490 16,100 -1,920 Descending Cleveland Center
05:44PM 41.9700 -82.6806 98° East 414 476 14,200 -1,560 Descending Cleveland Center
05:44PM 41.9667 -82.6244 95° East 410 472 14,000 -1,440 Descending Cleveland Center
05:45PM 41.9497 -82.5347 104° East 408 470 12,800 -1,860 Descending Cleveland Center
05:46PM 41.9122 -82.4025 111° Southeast 388 447 11,000 -1,380 Descending Cleveland Center
05:47PM 41.8703 -82.2728 113° Southeast 378 435 10,100 -480 Descending Cleveland Center
05:48PM 41.8219 -82.1519 118° Southeast 373 429 10,100 -60 Level Cleveland Center
05:49PM 41.7439 -82.0803 146° Southeast 367 422 10,000 -60 Descending Cleveland Center
05:50PM 41.6592 -82.0061 147° Southeast 367 422 10,000 -240 Level Cleveland Center
05:51PM 41.5747 -81.9322 147° Southeast 367 422 9,600 -660 Descending Cleveland Center
05:51PM 41.5497 -81.9178 157° South 308 354 9,200 -2,100 Descending Cleveland Center
05:52PM 41.4978 -81.9056 170° South 274 315 7,600 -1,920 Descending Cleveland Center
05:53PM 41.4389 -81.9514 210° Southwest 244 281 5,900 -1,260 Descending Cleveland Center
05:54PM 41.3986 -82.0197 232° Southwest 230 265 5,100 -840 Descending Cleveland Center
05:55PM 41.3481 -82.0600 211° Southwest 182 209 4,100 -900 Descending Cleveland Center
05:56PM 41.3194 -82.0069 126° Southeast 195 224 3,200 -960 Descending Cleveland Center
05:57PM 41.3494 -81.9522 54° Northeast 181 208 2,300 -840 Descending Cleveland Center
05:58PM 41.3747 -81.9142 48° Northeast 134 154 1,600 -780 Descending Cleveland Center
06:00PM 41.4000 -81.8500 82° East  Level FlightAware Approximate
06:07PM 41.4094 -81.8547 82° East  Level Estimated